Time;durP1;ratioP1;P1;durP2;ratioP2;P2;SDS_P1;SDS_P2;PMS_P1;PMS_P2;Temp;Humidity;BMP_temperature;BMP_pressure;BME280_temperature;BME280_humidity;BME280_pressure;Samples;Min_cycle;Max_cycle;Signal;HPM_P1;HPM_P2
2022/05/07 00:01:59;;;;;;;5.37;4.87;;;16.50;99.90;;;;;;5015785;28;20534;-78
2022/05/07 00:04:26;;;;;;;6.83;5.00;;;16.50;99.90;;;;;;5018428;28;20213;-78
2022/05/07 00:06:52;;;;;;;6.20;5.23;;;16.50;99.90;;;;;;5017337;28;20762;-77
2022/05/07 00:09:18;;;;;;;5.83;5.27;;;16.30;99.90;;;;;;5034443;28;20181;-78
2022/05/07 00:11:47;;;;;;;7.47;5.53;;;16.10;99.90;;;;;;5017726;28;20956;-78
2022/05/07 00:14:13;;;;;;;5.97;5.37;;;16.20;99.90;;;;;;5021792;28;20451;-77
2022/05/07 00:19:23;;;;;;;9.23;5.60;;;16.40;99.90;;;;;;5017993;28;20924;-77
2022/05/07 00:21:48;;;;;;;6.23;5.63;;;16.30;99.90;;;;;;5019715;28;20467;-78
2022/05/07 00:24:14;;;;;;;8.57;6.40;;;16.40;99.90;;;;;;5020946;28;20208;-79
2022/05/07 00:26:40;;;;;;;10.53;6.40;;;16.30;99.90;;;;;;5020220;28;20656;-78
2022/05/07 00:29:06;;;;;;;6.90;5.67;;;16.10;99.90;;;;;;5018814;28;20232;-77
2022/05/07 00:31:31;;;;;;;6.97;6.23;;;15.90;99.90;;;;;;5028780;28;20241;-76
2022/05/07 00:33:57;;;;;;;8.33;7.07;;;15.70;99.90;;;;;;5032146;28;20483;-77
2022/05/07 00:36:23;;;;;;;8.53;6.50;;;15.60;99.90;;;;;;5024558;28;20208;-77
2022/05/07 00:38:52;;;;;;;8.10;6.63;;;15.50;99.90;;;;;;5019088;28;20188;-76
2022/05/07 00:41:17;;;;;;;8.80;6.40;;;15.70;99.90;;;;;;5022277;28;20467;-76
2022/05/07 00:43:43;;;;;;;9.67;6.73;;;15.80;99.90;;;;;;5025080;28;20455;-77
2022/05/07 00:46:10;;;;;;;8.67;7.17;;;15.90;99.90;;;;;;5017786;28;20192;-77
2022/05/07 00:48:37;;;;;;;7.63;6.47;;;15.90;99.90;;;;;;5018494;28;20197;-77
2022/05/07 00:53:48;;;;;;;10.33;7.10;;;16.20;99.90;;;;;;5025241;28;20454;-77
2022/05/07 00:56:14;;;;;;;10.10;5.80;;;16.10;99.90;;;;;;5021917;28;20522;-77
2022/05/07 00:58:39;;;;;;;6.70;5.97;;;16.20;99.90;;;;;;5039455;28;20432;-79
2022/05/07 01:01:05;;;;;;;6.70;5.13;;;16.10;99.90;;;;;;5022005;28;20294;-75
2022/05/07 01:03:31;;;;;;;8.03;5.93;;;16.20;99.90;;;;;;5023629;28;20210;-77
2022/05/07 01:05:57;;;;;;;8.20;5.90;;;16.30;99.90;;;;;;5018186;28;20255;-78
2022/05/07 01:08:25;;;;;;;6.70;5.80;;;16.40;99.90;;;;;;5019319;28;20439;-77
2022/05/07 01:10:52;;;;;;;5.70;5.20;;;16.10;99.90;;;;;;5018879;28;20214;-76
2022/05/07 01:13:18;;;;;;;6.10;5.50;;;15.70;99.90;;;;;;5017937;28;20445;-78
2022/05/07 01:15:48;;;;;;;6.50;5.73;;;15.60;99.90;;;;;;5017579;28;20482;-78
2022/05/07 01:18:15;;;;;;;9.67;6.00;;;15.80;99.90;;;;;;5020883;28;20440;-78
2022/05/07 01:20:44;;;;;;;6.77;5.50;;;15.50;99.90;;;;;;5024343;28;20623;-78
2022/05/07 01:23:10;;;;;;;6.80;5.00;;;15.40;99.90;;;;;;5019702;28;20494;-77
2022/05/07 01:25:39;;;;;;;9.10;6.03;;;15.40;99.90;;;;;;5020953;28;20466;-77
2022/05/07 01:28:05;;;;;;;6.30;5.40;;;15.50;99.90;;;;;;5032490;28;20483;-77
2022/05/07 01:30:31;;;;;;;7.20;6.17;;;15.20;99.90;;;;;;5016110;28;20514;-78
2022/05/07 01:32:56;;;;;;;9.43;5.67;;;15.00;99.90;;;;;;5008990;28;20601;-77
2022/05/07 01:35:22;;;;;;;7.10;5.10;;;15.00;99.90;;;;;;5012510;28;22766;-76
2022/05/07 01:37:48;;;;;;;5.93;5.20;;;15.30;99.90;;;;;;5031010;28;20180;-76
2022/05/07 01:40:14;;;;;;;10.60;5.97;;;15.50;99.90;;;;;;5017693;28;20177;-76
2022/05/07 01:42:40;;;;;;;10.63;5.77;;;15.40;99.90;;;;;;5024903;28;20208;-78
2022/05/07 01:45:06;;;;;;;6.43;5.37;;;15.20;99.90;;;;;;5026472;28;20193;-78
2022/05/07 01:50:23;;;;;;;6.07;5.47;;;15.40;99.90;;;;;;5024791;28;20540;-77
2022/05/07 01:52:49;;;;;;;7.90;5.50;;;15.50;99.90;;;;;;5022862;28;20480;-77
2022/05/07 01:55:14;;;;;;;7.20;5.30;;;15.30;99.90;;;;;;5020977;28;20186;-77
2022/05/07 01:57:46;;;;;;;6.17;5.57;;;15.10;99.90;;;;;;5023554;28;20235;-77
2022/05/07 02:00:12;;;;;;;8.30;5.43;;;15.10;99.90;;;;;;5017209;28;20215;-77
2022/05/07 02:02:37;;;;;;;7.90;5.60;;;15.30;99.90;;;;;;5038431;28;20547;-78
2022/05/07 02:05:03;;;;;;;6.77;5.33;;;15.20;99.90;;;;;;5040399;28;20451;-77
2022/05/07 02:07:29;;;;;;;7.03;5.17;;;15.10;99.90;;;;;;5024164;28;20212;-77
2022/05/07 02:09:54;;;;;;;6.23;5.40;;;15.20;99.90;;;;;;5040488;28;20510;-77
2022/05/07 02:12:20;;;;;;;8.10;5.47;;;15.20;99.90;;;;;;5021784;28;20276;-76
2022/05/07 02:14:46;;;;;;;6.50;5.83;;;14.90;99.90;;;;;;5018009;28;20192;-77
2022/05/07 02:17:11;;;;;;;5.93;5.23;;;14.70;99.90;;;;;;5040289;28;20199;-77
2022/05/07 02:19:37;;;;;;;6.27;5.57;;;14.90;99.90;;;;;;5022645;28;21077;-77
2022/05/07 02:22:03;;;;;;;5.20;4.70;;;14.90;99.90;;;;;;5023098;28;20283;-77
2022/05/07 02:24:28;;;;;;;8.30;5.10;;;15.10;99.90;;;;;;5018878;28;20215;-77
2022/05/07 02:26:54;;;;;;;5.97;5.30;;;15.00;99.90;;;;;;5020287;28;20188;-76
2022/05/07 02:29:20;;;;;;;6.63;4.73;;;15.00;99.90;;;;;;5016549;28;20195;-77
2022/05/07 02:32:03;;;;;;;6.60;5.50;;;14.80;99.90;;;;;;5016943;28;20405;-77
2022/05/07 02:34:32;;;;;;;5.93;5.13;;;14.60;99.90;;;;;;5019459;28;20455;-77
2022/05/07 02:36:59;;;;;;;7.00;5.90;;;14.80;99.90;;;;;;5039504;28;20492;-78
2022/05/07 02:39:25;;;;;;;7.47;5.63;;;15.00;99.90;;;;;;5024813;28;22007;-77
2022/05/07 02:44:36;;;;;;;8.83;5.20;;;14.90;99.90;;;;;;5027775;28;20437;-77
2022/05/07 02:47:02;;;;;;;6.13;4.97;;;14.70;99.90;;;;;;5023095;28;20432;-77
2022/05/07 02:49:28;;;;;;;8.03;5.27;;;14.90;99.90;;;;;;5024674;28;20439;-78
2022/05/07 02:51:53;;;;;;;9.03;6.63;;;15.10;99.90;;;;;;5023993;28;20493;-78
2022/05/07 02:54:19;;;;;;;6.90;5.10;;;15.00;99.90;;;;;;5025076;28;20242;-77
2022/05/07 02:56:45;;;;;;;6.53;5.00;;;14.70;99.90;;;;;;5024682;28;20264;-77
2022/05/07 02:59:10;;;;;;;7.67;4.60;;;14.80;99.90;;;;;;5024325;28;20188;-77
2022/05/07 03:01:36;;;;;;;5.30;4.80;;;14.30;99.90;;;;;;5036457;28;20703;-77
2022/05/07 03:04:01;;;;;;;5.97;5.37;;;14.20;99.90;;;;;;5039564;28;20729;-78
2022/05/07 03:06:27;;;;;;;6.47;4.83;;;14.40;99.90;;;;;;5027365;28;20176;-77
2022/05/07 03:08:53;;;;;;;6.00;5.40;;;14.40;99.90;;;;;;5029095;28;20180;-78
2022/05/07 03:11:18;;;;;;;8.60;4.83;;;14.60;99.90;;;;;;5025663;28;20591;-78
2022/05/07 03:13:44;;;;;;;9.97;6.00;;;14.60;99.90;;;;;;5022830;28;20300;-78
2022/05/07 03:16:10;;;;;;;9.43;5.93;;;14.40;99.90;;;;;;5021641;28;20208;-77
2022/05/07 03:18:35;;;;;;;7.77;5.30;;;14.20;99.90;;;;;;5044422;28;20193;-78
2022/05/07 03:21:02;;;;;;;6.57;5.77;;;14.30;99.90;;;;;;5028003;28;20185;-76
2022/05/07 03:23:28;;;;;;;5.67;5.07;;;14.30;99.90;;;;;;5029144;28;20200;-76
2022/05/07 03:25:55;;;;;;;12.13;6.03;;;14.10;99.90;;;;;;5024440;28;20435;-78
2022/05/07 03:28:20;;;;;;;7.43;5.60;;;14.10;99.90;;;;;;5022157;28;20478;-77
2022/05/07 03:30:46;;;;;;;7.30;5.70;;;14.20;99.90;;;;;;5024958;28;20481;-77
2022/05/07 03:33:12;;;;;;;8.30;6.13;;;14.10;99.90;;;;;;5017680;28;20212;-77
2022/05/07 03:35:39;;;;;;;8.53;6.03;;;14.00;99.90;;;;;;5041218;28;20831;-78
2022/05/07 03:38:04;;;;;;;6.33;5.10;;;14.20;99.90;;;;;;5023381;28;20549;-77
2022/05/07 03:40:32;;;;;;;11.03;6.00;;;14.40;99.90;;;;;;5022391;28;20465;-77
2022/05/07 03:42:58;;;;;;;6.57;5.73;;;14.30;99.90;;;;;;5020912;28;20204;-77
2022/05/07 03:45:24;;;;;;;7.10;5.77;;;14.00;99.90;;;;;;5013422;28;20443;-77
2022/05/07 03:47:49;;;;;;;6.43;5.60;;;14.20;99.90;;;;;;5016438;28;20257;-76
2022/05/07 03:50:15;;;;;;;5.60;5.10;;;14.30;99.90;;;;;;5020985;28;20564;-77
2022/05/07 03:55:25;;;;;;;11.53;5.37;;;14.20;99.90;;;;;;5029913;28;20183;-78
2022/05/07 03:57:50;;;;;;;6.33;5.00;;;13.90;99.90;;;;;;5030407;28;20527;-77
2022/05/07 04:00:16;;;;;;;6.63;5.40;;;14.10;99.90;;;;;;5033604;28;20199;-77
2022/05/07 04:02:42;;;;;;;6.10;4.63;;;14.10;99.90;;;;;;5029974;28;20295;-77
2022/05/07 04:05:08;;;;;;;8.10;4.97;;;13.60;99.90;;;;;;5027035;28;20478;-78
2022/05/07 04:07:34;;;;;;;5.90;4.50;;;13.50;99.90;;;;;;5029409;28;20172;-78
2022/05/07 04:09:59;;;;;;;8.83;4.40;;;13.70;99.90;;;;;;5031648;28;20961;-78
2022/05/07 04:12:25;;;;;;;5.60;4.93;;;14.00;99.90;;;;;;5035770;28;20195;-78
2022/05/07 04:14:51;;;;;;;7.60;5.17;;;13.60;99.90;;;;;;5029866;28;20195;-78
2022/05/07 04:17:16;;;;;;;6.43;5.60;;;13.90;99.90;;;;;;5028140;28;20181;-78
2022/05/07 04:19:42;;;;;;;6.83;6.07;;;13.80;99.90;;;;;;5027980;28;20192;-77
2022/05/07 04:22:07;;;;;;;5.83;5.10;;;13.70;99.90;;;;;;5027253;28;20221;-77
2022/05/07 04:24:33;;;;;;;5.90;5.30;;;13.70;99.90;;;;;;5032789;28;20208;-77
2022/05/07 04:27:02;;;;;;;7.13;5.30;;;13.80;99.90;;;;;;5028413;28;20710;-78
2022/05/07 04:29:28;;;;;;;13.13;5.93;;;13.80;99.90;;;;;;5025266;28;20176;-77
2022/05/07 04:31:53;;;;;;;7.60;5.43;;;13.70;99.90;;;;;;5023357;28;20477;-77
2022/05/07 04:34:19;;;;;;;7.30;4.87;;;13.70;99.90;;;;;;5026194;28;20209;-77
2022/05/07 04:36:45;;;;;;;6.37;5.07;;;13.80;99.90;;;;;;5023693;28;20188;-77
2022/05/07 04:39:10;;;;;;;6.30;4.87;;;13.50;99.90;;;;;;5016727;28;20197;-77
2022/05/07 04:41:36;;;;;;;8.43;5.37;;;13.00;99.90;;;;;;5025525;28;20204;-79
2022/05/07 04:44:02;;;;;;;6.70;4.60;;;12.90;99.90;;;;;;5024688;28;20200;-77
2022/05/07 04:46:27;;;;;;;7.60;5.60;;;12.90;99.90;;;;;;5022028;28;20181;-77
2022/05/07 04:48:53;;;;;;;6.53;5.53;;;13.30;99.90;;;;;;5019073;28;20185;-77
2022/05/07 04:51:19;;;;;;;6.17;5.10;;;13.40;99.90;;;;;;5023788;28;20283;-78
2022/05/07 04:53:44;;;;;;;7.60;5.97;;;13.50;99.90;;;;;;5024084;28;20208;-79
2022/05/07 04:56:10;;;;;;;7.20;5.10;;;13.30;99.90;;;;;;5022170;28;20189;-77
2022/05/07 04:58:36;;;;;;;6.63;5.20;;;13.30;99.90;;;;;;5014507;28;20177;-77
2022/05/07 05:01:02;;;;;;;7.73;5.27;;;13.60;99.90;;;;;;5031778;28;20462;-77
2022/05/07 05:03:28;;;;;;;7.10;5.40;;;13.80;99.90;;;;;;5036026;28;20258;-77
2022/05/07 05:05:53;;;;;;;6.13;5.53;;;14.00;99.90;;;;;;5018342;28;21257;-78
2022/05/07 05:08:19;;;;;;;7.73;5.60;;;14.10;99.90;;;;;;5017068;28;20180;-79
2022/05/07 05:10:45;;;;;;;6.33;5.67;;;13.80;99.90;;;;;;5018220;28;20186;-77
2022/05/07 05:13:11;;;;;;;6.47;5.80;;;13.80;99.90;;;;;;5014835;28;20219;-78
2022/05/07 05:15:39;;;;;;;7.13;5.80;;;13.50;99.90;;;;;;5020950;28;20435;-79
2022/05/07 05:18:06;;;;;;;5.90;5.07;;;13.40;99.90;;;;;;5015267;28;20185;-78
2022/05/07 05:20:32;;;;;;;6.23;5.60;;;13.50;99.90;;;;;;5020704;28;20438;-79
2022/05/07 05:22:57;;;;;;;8.33;5.43;;;13.50;99.90;;;;;;5017629;28;20462;-77
2022/05/07 05:25:23;;;;;;;6.83;5.40;;;13.60;99.90;;;;;;5016263;28;20231;-77
2022/05/07 05:27:49;;;;;;;6.17;5.10;;;14.00;99.90;;;;;;5016141;28;20181;-78
2022/05/07 05:30:14;;;;;;;9.53;5.47;;;14.00;99.90;;;;;;5018356;28;20220;-78
2022/05/07 05:32:40;;;;;;;5.97;5.37;;;13.90;99.90;;;;;;5017031;28;20744;-78
2022/05/07 05:35:06;;;;;;;8.30;5.17;;;13.90;99.90;;;;;;5014487;28;20181;-78
2022/05/07 05:37:32;;;;;;;7.50;6.17;;;14.10;99.90;;;;;;5021319;28;20497;-77
2022/05/07 05:39:57;;;;;;;7.57;6.80;;;13.90;99.90;;;;;;5020788;28;20449;-78
2022/05/07 05:42:24;;;;;;;8.17;5.93;;;14.10;99.90;;;;;;5014726;28;20228;-77
2022/05/07 05:44:50;;;;;;;6.93;6.07;;;14.20;99.90;;;;;;5019312;28;20177;-78
2022/05/07 05:47:15;;;;;;;7.00;5.80;;;14.20;99.90;;;;;;5019700;28;20972;-77
2022/05/07 05:49:41;;;;;;;8.87;5.53;;;14.50;99.90;;;;;;5018157;28;20178;-78
2022/05/07 05:52:07;;;;;;;9.70;6.00;;;14.30;99.90;;;;;;5017656;28;20664;-79
2022/05/07 05:54:35;;;;;;;7.30;6.00;;;14.40;99.90;;;;;;5014940;28;20211;-77
2022/05/07 05:57:01;;;;;;;9.10;6.30;;;14.40;99.90;;;;;;5019859;28;20435;-77
2022/05/07 05:59:28;;;;;;;7.10;5.87;;;14.40;99.90;;;;;;5033921;28;20449;-79
2022/05/07 06:01:53;;;;;;;6.83;6.07;;;14.60;99.90;;;;;;5021437;28;20552;-77
2022/05/07 06:04:19;;;;;;;9.33;6.30;;;14.60;99.90;;;;;;5018924;28;20513;-77
2022/05/07 06:06:45;;;;;;;8.53;6.03;;;14.40;99.90;;;;;;5021184;28;20181;-78
2022/05/07 06:09:11;;;;;;;5.80;5.20;;;14.50;99.90;;;;;;5014705;28;20189;-76
2022/05/07 06:11:36;;;;;;;8.60;5.80;;;14.50;99.90;;;;;;5018817;28;20185;-78
2022/05/07 06:14:02;;;;;;;6.93;5.47;;;14.80;99.90;;;;;;5006156;28;20205;-78
2022/05/07 06:16:29;;;;;;;8.13;5.63;;;15.00;99.90;;;;;;5007461;28;20187;-79
2022/05/07 06:18:55;;;;;;;7.53;5.90;;;14.90;99.90;;;;;;5007507;28;20268;-78
2022/05/07 06:21:20;;;;;;;8.27;6.47;;;14.80;99.90;;;;;;5004688;28;20466;-78
2022/05/07 06:23:46;;;;;;;6.63;6.00;;;15.00;99.90;;;;;;5009329;28;20447;-77
2022/05/07 06:28:56;;;;;;;6.07;5.07;;;15.10;99.90;;;;;;5007627;28;20299;-78
2022/05/07 06:31:21;;;;;;;10.03;6.67;;;15.00;99.90;;;;;;5009717;28;20557;-78
2022/05/07 06:33:47;;;;;;;6.27;5.67;;;15.10;99.90;;;;;;5012470;28;20294;-77
2022/05/07 06:36:13;;;;;;;7.77;6.43;;;15.20;99.90;;;;;;5007710;28;20822;-77
2022/05/07 06:38:39;;;;;;;9.43;6.30;;;15.00;99.90;;;;;;5014521;28;20193;-77
2022/05/07 06:41:06;;;;;;;14.70;6.57;;;15.00;99.90;;;;;;5014421;28;20180;-77
2022/05/07 06:43:33;;;;;;;7.30;5.53;;;15.10;99.90;;;;;;5011850;28;20477;-79
2022/05/07 06:45:59;;;;;;;8.53;6.40;;;15.30;99.90;;;;;;5012358;28;20995;-79
2022/05/07 06:48:26;;;;;;;6.20;5.60;;;15.40;99.90;;;;;;5011789;28;20415;-78
2022/05/07 06:50:53;;;;;;;7.80;6.57;;;15.40;99.90;;;;;;5010629;28;20921;-77
2022/05/07 06:53:19;;;;;;;6.60;5.53;;;15.40;99.90;;;;;;5006117;28;20459;-77
2022/05/07 06:55:58;;;;;;;7.10;5.30;;;15.50;99.90;;;;;;5008962;28;20443;-77
2022/05/07 06:58:26;;;;;;;6.60;5.27;;;15.70;99.90;;;;;;5024322;28;20188;-77
2022/05/07 07:00:52;;;;;;;6.40;5.70;;;15.80;99.90;;;;;;5005058;28;20451;-77
2022/05/07 07:03:18;;;;;;;9.53;5.40;;;15.80;99.90;;;;;;5010582;28;20949;-77
2022/05/07 07:05:43;;;;;;;10.63;5.70;;;15.80;99.90;;;;;;5009414;28;20427;-77
2022/05/07 07:08:11;;;;;;;6.80;5.40;;;15.70;99.90;;;;;;5008566;28;20569;-77
2022/05/07 07:10:37;;;;;;;8.37;5.63;;;15.80;99.90;;;;;;5008461;28;20180;-76
2022/05/07 07:13:04;;;;;;;6.90;5.23;;;16.00;99.90;;;;;;5006523;28;20461;-77
2022/05/07 07:15:30;;;;;;;7.37;6.60;;;16.00;99.90;;;;;;5011279;28;20535;-76
2022/05/07 07:17:55;;;;;;;5.27;4.77;;;16.00;99.90;;;;;;5008873;28;20426;-77
2022/05/07 07:20:21;;;;;;;7.53;5.03;;;16.20;99.90;;;;;;5001793;28;20181;-77
2022/05/07 07:22:46;;;;;;;14.43;4.90;;;16.30;99.90;;;;;;5004737;28;20208;-77
2022/05/07 07:25:12;;;;;;;6.23;5.20;;;16.40;99.90;;;;;;5006602;28;20181;-76
2022/05/07 07:27:38;;;;;;;9.23;5.03;;;16.30;99.90;;;;;;5015063;28;21067;-77
2022/05/07 07:30:04;;;;;;;6.70;4.73;;;16.40;99.90;;;;;;5006653;28;20186;-77
2022/05/07 07:32:30;;;;;;;8.80;4.73;;;16.50;99.90;;;;;;5003861;28;20348;-77
2022/05/07 07:34:55;;;;;;;6.10;4.50;;;16.60;99.90;;;;;;5012176;28;20555;-77
2022/05/07 07:37:21;;;;;;;8.70;4.10;;;16.70;99.90;;;;;;5001894;28;20660;-77
2022/05/07 07:39:46;;;;;;;6.10;4.80;;;16.70;99.90;;;;;;5006964;28;20225;-77
2022/05/07 07:42:12;;;;;;;7.70;4.20;;;16.80;99.90;;;;;;5001020;28;20338;-77
2022/05/07 07:44:38;;;;;;;6.60;4.73;;;16.80;99.90;;;;;;5006644;28;20184;-77
2022/05/07 07:49:48;;;;;;;4.10;3.70;;;17.00;99.90;;;;;;5009785;28;20553;-77
2022/05/07 07:52:15;;;;;;;4.97;3.97;;;17.10;99.90;;;;;;5009814;28;20431;-77
2022/05/07 07:54:41;;;;;;;4.17;3.77;;;17.10;99.90;;;;;;5011274;28;20184;-77
2022/05/07 07:57:07;;;;;;;6.30;4.43;;;17.20;99.90;;;;;;5010383;28;20447;-77
2022/05/07 07:59:32;;;;;;;5.67;4.17;;;17.30;99.90;;;;;;5012388;28;20180;-78
2022/05/07 08:01:58;;;;;;;5.27;3.50;;;17.20;99.90;;;;;;5015908;28;20201;-78
2022/05/07 08:04:25;;;;;;;5.10;4.10;;;17.40;99.90;;;;;;5013803;28;20205;-77
2022/05/07 08:12:23;;;;;;;6.53;3.70;;;17.60;99.90;;;;;;5016832;28;20582;-78
2022/05/07 08:14:49;;;;;;;10.40;4.30;;;17.60;99.90;;;;;;5016867;28;20530;-78
2022/05/07 08:17:15;;;;;;;5.00;4.07;;;17.70;99.90;;;;;;5016339;28;20188;-78
2022/05/07 08:19:41;;;;;;;11.50;4.90;;;17.80;99.90;;;;;;5014623;28;20220;-78
2022/05/07 08:22:07;;;;;;;4.40;3.83;;;17.90;99.90;;;;;;5015282;28;20582;-78
2022/05/07 08:24:32;;;;;;;6.17;5.20;;;17.90;99.90;;;;;;5017264;28;20276;-78
2022/05/07 08:26:58;;;;;;;6.17;4.30;;;17.90;99.90;;;;;;5014099;28;20188;-78
2022/05/07 08:29:24;;;;;;;5.63;5.10;;;18.00;99.90;;;;;;5031051;28;20180;-78
2022/05/07 08:31:52;;;;;;;8.00;6.73;;;18.10;99.90;;;;;;5013803;28;20181;-78
2022/05/07 08:34:18;;;;;;;5.23;4.00;;;18.10;99.90;;;;;;5015427;28;20283;-78
2022/05/07 08:36:44;;;;;;;10.73;7.00;;;18.20;99.90;;;;;;5017682;28;20443;-79
2022/05/07 08:39:09;;;;;;;6.53;5.20;;;18.30;99.90;;;;;;5009245;28;20203;-77
2022/05/07 08:41:36;;;;;;;7.93;4.63;;;18.30;99.90;;;;;;5008357;28;20255;-77
2022/05/07 08:44:02;;;;;;;7.37;6.00;;;18.40;99.90;;;;;;5010678;28;20644;-79
2022/05/07 08:46:28;;;;;;;4.97;3.97;;;18.50;99.90;;;;;;5010785;28;20585;-77
2022/05/07 08:48:54;;;;;;;6.30;5.70;;;18.60;99.90;;;;;;5008735;28;20432;-77
2022/05/07 08:51:23;;;;;;;4.40;4.00;;;18.80;99.90;;;;;;5012733;28;20430;-77
2022/05/07 08:53:53;;;;;;;5.00;4.30;;;18.90;99.90;;;;;;5003880;28;20455;-76
2022/05/07 08:56:20;;;;;;;4.77;4.20;;;18.90;99.90;;;;;;5009163;28;20427;-76
2022/05/07 08:58:47;;;;;;;4.83;4.43;;;18.90;99.90;;;;;;5010368;28;20443;-77
2022/05/07 09:01:13;;;;;;;5.50;4.10;;;19.00;99.90;;;;;;5026318;28;20861;-77
2022/05/07 09:03:40;;;;;;;6.80;4.40;;;19.00;99.90;;;;;;5010470;28;20473;-76
2022/05/07 09:06:20;;;;;;;16.67;14.73;;;19.10;99.90;;;;;;5010871;28;20563;-77
2022/05/07 09:08:47;;;;;;;9.80;8.90;;;19.10;99.90;;;;;;5013415;28;20415;-77
2022/05/07 09:11:15;;;;;;;5.10;4.60;;;19.20;99.90;;;;;;5012057;28;20634;-77
2022/05/07 09:13:41;;;;;;;7.37;6.17;;;19.20;99.90;;;;;;5009461;28;20557;-77
2022/05/07 09:16:08;;;;;;;7.07;4.27;;;19.30;99.90;;;;;;5008729;28;20801;-74
2022/05/07 09:18:34;;;;;;;4.70;4.03;;;19.40;99.90;;;;;;5008936;28;21474;-74
2022/05/07 09:21:16;;;;;;;6.87;4.57;;;19.70;99.90;;;;;;5009021;28;20439;-75
2022/05/07 09:23:48;;;;;;;5.07;4.00;;;20.00;99.90;;;;;;5026450;28;20530;-74
2022/05/07 09:26:47;;;;;;;4.90;4.03;;;20.30;99.90;;;;;;5029397;28;20436;-75
2022/05/07 09:29:14;;;;;;;11.13;3.50;;;20.60;99.90;;;;;;5020881;28;20454;-74
2022/05/07 09:31:43;;;;;;;10.97;5.10;;;20.80;99.90;;;;;;5015293;28;20522;-75
2022/05/07 09:37:18;;;;;;;5.80;4.40;;;21.10;99.90;;;;;;5009929;28;20437;-74
2022/05/07 09:39:49;;;;;;;4.40;3.93;;;21.30;99.90;;;;;;5026151;28;20473;-75
2022/05/07 09:42:19;;;;;;;4.70;3.67;;;21.40;99.90;;;;;;5008388;28;20455;-75
2022/05/07 09:44:45;;;;;;;5.70;4.20;;;21.50;99.90;;;;;;5018961;28;20440;-73
2022/05/07 09:47:12;;;;;;;6.70;4.50;;;21.50;99.90;;;;;;5011786;28;20435;-73
2022/05/07 09:58:17;;;;;;;6.00;4.20;;;21.70;99.70;;;;;;5005202;28;20442;-71
2022/05/07 10:00:58;;;;;;;4.97;4.07;;;21.80;98.30;;;;;;5008888;28;20470;-72
2022/05/07 10:03:31;;;;;;;4.40;3.63;;;21.90;98.60;;;;;;5008788;28;21135;-72
2022/05/07 10:06:10;;;;;;;4.53;4.13;;;21.90;98.90;;;;;;5009544;28;20430;-72
2022/05/07 10:09:14;;;;;;;4.73;4.23;;;22.10;97.90;;;;;;5009503;28;20442;-72
2022/05/07 10:11:39;;;;;;;9.13;4.07;;;22.10;98.30;;;;;;5028028;28;21229;-73
2022/05/07 10:14:06;;;;;;;5.13;4.57;;;22.10;97.40;;;;;;5009861;28;20473;-74
2022/05/07 10:16:32;;;;;;;5.00;3.70;;;22.20;97.20;;;;;;5012573;28;20173;-73
2022/05/07 10:19:12;;;;;;;5.53;3.80;;;22.20;97.50;;;;;;5014528;28;20455;-72
2022/05/07 10:21:38;;;;;;;3.80;3.37;;;22.20;93.10;;;;;;5009320;28;20207;-72
2022/05/07 10:24:05;;;;;;;4.70;4.30;;;22.20;92.90;;;;;;5008021;28;20454;-72
2022/05/07 10:26:41;;;;;;;5.07;3.73;;;22.20;94.20;;;;;;5016358;28;20181;-72
2022/05/07 10:29:29;;;;;;;4.20;3.80;;;22.20;93.70;;;;;;5010191;28;20435;-72
2022/05/07 10:32:05;;;;;;;5.07;3.87;;;22.20;93.60;;;;;;5013151;28;20858;-72
2022/05/07 10:34:31;;;;;;;4.13;3.73;;;22.20;93.00;;;;;;5007042;28;20462;-72
2022/05/07 10:37:04;;;;;;;6.80;3.80;;;22.20;93.40;;;;;;5003231;28;20436;-74
2022/05/07 10:39:30;;;;;;;7.73;5.23;;;22.30;93.40;;;;;;5020288;28;20192;-74
2022/05/07 10:41:57;;;;;;;4.13;3.73;;;22.30;92.10;;;;;;5009545;28;20459;-73
2022/05/07 10:44:33;;;;;;;8.30;4.03;;;22.40;91.30;;;;;;5012904;28;20488;-74
2022/05/07 10:47:13;;;;;;;4.53;4.03;;;22.40;90.60;;;;;;5009825;28;20438;-71
2022/05/07 10:49:56;;;;;;;4.37;3.97;;;22.40;91.00;;;;;;5024339;28;20796;-72
2022/05/07 10:52:32;;;;;;;4.53;3.40;;;22.40;91.00;;;;;;5009847;28;20972;-72
2022/05/07 10:55:04;;;;;;;9.00;3.70;;;22.50;90.80;;;;;;5013335;28;20414;-72
2022/05/07 10:57:40;;;;;;;8.57;3.87;;;22.40;89.30;;;;;;5015622;28;20438;-72
2022/05/07 11:00:18;;;;;;;4.93;3.50;;;22.50;88.40;;;;;;5006333;28;20450;-74
2022/05/07 11:02:45;;;;;;;5.57;3.60;;;22.60;90.30;;;;;;5011310;28;20466;-74
2022/05/07 11:05:11;;;;;;;4.23;3.83;;;22.60;90.00;;;;;;5015407;28;20482;-71
2022/05/07 11:07:38;;;;;;;4.73;3.83;;;22.60;89.80;;;;;;5013258;28;20445;-71
2022/05/07 11:10:05;;;;;;;4.47;3.80;;;22.60;87.40;;;;;;5021890;28;20442;-71
2022/05/07 11:12:30;;;;;;;4.33;3.47;;;22.60;85.50;;;;;;5008026;28;20500;-72
2022/05/07 11:14:56;;;;;;;4.07;3.67;;;22.60;83.50;;;;;;5011569;28;21099;-73
2022/05/07 11:17:30;;;;;;;6.53;4.80;;;22.60;83.80;;;;;;4996470;28;20186;-71
2022/05/07 11:19:57;;;;;;;5.40;4.00;;;22.60;86.50;;;;;;5007275;28;20485;-72
2022/05/07 11:22:32;;;;;;;6.10;4.07;;;22.70;82.80;;;;;;5013139;28;20505;-71
2022/05/07 11:25:00;;;;;;;6.40;5.17;;;22.70;80.50;;;;;;5014029;28;20434;-71
2022/05/07 11:27:30;;;;;;;5.27;4.20;;;22.70;82.60;;;;;;5011598;28;20461;-71
2022/05/07 11:29:56;;;;;;;6.70;4.83;;;22.70;81.80;;;;;;5011684;28;20419;-71
2022/05/07 11:32:22;;;;;;;4.60;4.20;;;22.80;81.10;;;;;;5006930;28;20443;-72
2022/05/07 11:34:55;;;;;;;9.87;4.07;;;22.80;79.30;;;;;;5014123;28;20212;-71
2022/05/07 11:37:23;;;;;;;11.23;4.60;;;22.80;80.10;;;;;;5011811;28;20255;-73
2022/05/07 11:39:54;;;;;;;5.83;4.73;;;22.80;80.60;;;;;;5007287;28;20894;-73
2022/05/07 11:42:38;;;;;;;5.77;4.90;;;22.80;80.30;;;;;;5003648;28;20472;-73
2022/05/07 11:48:08;;;;;;;3.80;3.33;;;22.90;79.40;;;;;;5008240;28;20517;-72
2022/05/07 11:50:49;;;;;;;4.87;3.40;;;22.90;77.60;;;;;;5009392;28;20472;-73
2022/05/07 11:53:17;;;;;;;9.20;5.30;;;22.90;77.30;;;;;;5007473;28;20453;-73
2022/05/07 11:55:44;;;;;;;4.50;4.10;;;22.90;77.80;;;;;;5024103;28;20501;-72
2022/05/07 11:58:18;;;;;;;6.50;4.07;;;22.90;77.80;;;;;;5011527;28;20439;-73
2022/05/07 12:00:45;;;;;;;5.93;5.33;;;22.90;80.50;;;;;;5009673;28;20462;-73
2022/05/07 12:03:15;;;;;;;4.90;4.50;;;22.90;84.10;;;;;;5012394;28;20472;-73
2022/05/07 12:05:41;;;;;;;5.80;4.00;;;23.00;82.80;;;;;;5009248;28;20446;-73
2022/05/07 12:08:44;;;;;;;4.60;4.20;;;23.00;80.80;;;;;;5009913;28;20439;-73
2022/05/07 12:11:09;;;;;;;8.10;4.20;;;23.00;79.60;;;;;;5011316;28;21265;-73
2022/05/07 12:13:35;;;;;;;4.77;3.70;;;23.10;79.50;;;;;;5009426;28;20541;-73
2022/05/07 12:18:49;;;;;;;4.53;4.13;;;23.10;78.50;;;;;;5011483;28;20438;-73
2022/05/07 12:21:15;;;;;;;4.60;3.80;;;23.10;79.70;;;;;;5028922;28;20493;-74
2022/05/07 12:31:53;;;;;;;4.77;4.13;;;23.20;79.50;;;;;;5007344;28;20427;-73
2022/05/07 12:34:19;;;;;;;6.00;4.30;;;23.20;81.40;;;;;;5007679;28;20857;-73
2022/05/07 12:36:48;;;;;;;4.40;3.17;;;23.20;82.20;;;;;;5005315;28;22388;-73
2022/05/07 12:39:14;;;;;;;8.07;4.30;;;23.30;82.30;;;;;;5006373;28;20451;-73
2022/05/07 12:41:41;;;;;;;4.00;3.30;;;23.30;81.30;;;;;;5012534;28;20471;-72
2022/05/07 12:44:07;;;;;;;4.17;3.17;;;23.50;77.80;;;;;;5010061;28;20533;-75
2022/05/07 12:46:33;;;;;;;3.47;3.17;;;25.10;76.00;;;;;;5013720;28;20857;-80
2022/05/07 12:48:58;;;;;;;3.63;3.33;;;28.80;73.40;;;;;;5019863;28;20264;-80
2022/05/07 12:51:28;;;;;;;3.63;3.17;;;31.80;68.10;;;;;;5021618;28;20191;-84
2022/05/07 12:53:54;;;;;;;3.40;2.97;;;33.90;56.60;;;;;;5028514;28;20215;-74
2022/05/07 12:56:22;;;;;;;3.77;2.87;;;33.40;50.10;;;;;;5021412;28;20425;-75
2022/05/07 12:58:49;;;;;;;2.83;2.60;;;33.70;49.40;;;;;;5013692;28;20415;-78
2022/05/07 13:01:15;;;;;;;3.93;3.10;;;35.40;45.70;;;;;;5007096;28;20867;-74
2022/05/07 13:03:41;;;;;;;2.97;2.67;;;36.90;42.10;;;;;;5012608;28;20929;-74
2022/05/07 13:06:06;;;;;;;3.27;2.90;;;36.30;40.90;;;;;;5015299;28;20463;-74
2022/05/07 13:08:32;;;;;;;2.87;2.57;;;35.30;39.90;;;;;;5006156;28;20182;-74
2022/05/07 13:10:58;;;;;;;3.40;2.77;;;34.60;40.00;;;;;;5011038;28;20181;-74
2022/05/07 13:13:24;;;;;;;5.50;3.40;;;34.00;39.40;;;;;;5009835;28;20239;-74
2022/05/07 13:15:51;;;;;;;3.20;2.80;;;32.90;39.10;;;;;;5013050;28;20180;-74
2022/05/07 13:18:17;;;;;;;3.50;3.13;;;32.30;41.00;;;;;;5012485;28;20386;-74
2022/05/07 13:20:43;;;;;;;4.40;3.20;;;31.70;41.20;;;;;;5010783;28;21271;-74
2022/05/07 13:23:09;;;;;;;6.60;3.40;;;32.20;42.60;;;;;;5010799;28;21073;-73
2022/05/07 13:25:35;;;;;;;3.50;3.20;;;33.90;41.40;;;;;;5010664;28;20440;-74
2022/05/07 13:28:01;;;;;;;4.37;2.80;;;34.50;40.00;;;;;;5015433;28;21208;-74
2022/05/07 13:30:26;;;;;;;3.20;2.60;;;34.50;39.60;;;;;;5009744;28;20445;-74
2022/05/07 13:32:52;;;;;;;3.20;2.90;;;34.20;39.50;;;;;;5011176;28;20229;-74
2022/05/07 13:35:18;;;;;;;3.60;3.30;;;33.90;39.90;;;;;;5010345;28;20168;-74
2022/05/07 13:37:44;;;;;;;6.40;2.67;;;33.60;39.70;;;;;;5011984;28;20707;-73